createdAt,value
2022-12-01T00:01:38.765Z,88.97
2022-12-01T00:05:40.198Z,89.27
2022-12-01T00:09:42.923Z,88.98
2022-12-01T00:13:44.301Z,89.40
2022-12-01T00:17:45.702Z,89.56
2022-12-01T00:21:47.075Z,88.41
2022-12-01T00:25:49.816Z,88.54
2022-12-01T00:29:51.263Z,89.33
2022-12-01T00:33:52.728Z,89.58
2022-12-01T00:37:54.319Z,89.54
2022-12-01T00:41:57.047Z,90.29
2022-12-01T00:45:58.487Z,87.76
2022-12-01T00:49:59.914Z,89.18
2022-12-01T00:54:01.357Z,88.78
2022-12-01T00:58:04.102Z,89.78
2022-12-01T01:02:06.203Z,90.84
2022-12-01T01:06:08.721Z,90.25
2022-12-01T01:10:10.759Z,90.60
2022-12-01T01:14:13.637Z,91.31
2022-12-01T01:18:15.000Z,90.28
2022-12-01T01:22:16.402Z,90.01
2022-12-01T01:26:18.560Z,90.95
2022-12-01T01:30:21.384Z,91.39
2022-12-01T01:34:22.825Z,91.43
2022-12-01T01:38:24.230Z,91.30
2022-12-01T01:42:25.590Z,91.07
2022-12-01T01:46:29.359Z,91.90
2022-12-01T01:50:30.877Z,92.12
2022-12-01T01:54:35.892Z,90.70
2022-12-01T01:58:38.436Z,91.17
2022-12-01T02:02:42.236Z,90.42
2022-12-01T02:06:43.635Z,90.27
2022-12-01T02:10:52.385Z,90.12
2022-12-01T02:15:02.243Z,90.88
2022-12-01T02:19:11.374Z,90.24
2022-12-01T02:23:24.530Z,90.51
2022-12-01T02:27:36.771Z,90.27
2022-12-01T02:31:41.557Z,91.42
2022-12-01T02:35:46.205Z,89.92
2022-12-01T02:39:51.316Z,90.15
2022-12-01T02:43:55.610Z,90.78
2022-12-01T02:48:00.550Z,90.92
2022-12-01T02:52:03.904Z,91.03
2022-12-01T02:56:06.487Z,91.55
2022-12-01T03:00:08.315Z,91.95
2022-12-01T03:04:19.911Z,91.92
2022-12-01T03:08:26.643Z,92.17
2022-12-01T03:12:30.172Z,91.73
2022-12-01T03:16:35.401Z,91.26
2022-12-01T03:20:41.743Z,91.68
2022-12-01T03:24:46.237Z,90.77
2022-12-01T03:28:50.332Z,90.48
2022-12-01T03:32:55.759Z,91.93
2022-12-01T03:37:01.025Z,92.18
2022-12-01T03:41:05.024Z,92.50
2022-12-01T03:45:07.660Z,92.25
2022-12-01T03:49:09.346Z,91.21
2022-12-01T03:53:14.464Z,91.13
2022-12-01T03:57:18.182Z,91.78
2022-12-01T04:01:19.944Z,92.76
2022-12-01T04:05:25.326Z,92.57
2022-12-01T04:09:28.356Z,92.62
2022-12-01T04:13:29.741Z,92.01
2022-12-01T04:17:31.113Z,92.64
2022-12-01T04:21:32.493Z,92.09
2022-12-01T04:25:35.233Z,92.31
2022-12-01T04:29:36.679Z,92.06
2022-12-01T04:33:38.046Z,92.48
2022-12-01T04:37:40.634Z,92.59
2022-12-01T04:41:43.367Z,92.37
2022-12-01T04:45:44.828Z,91.96
2022-12-01T04:49:46.338Z,91.77
2022-12-01T04:53:47.880Z,92.33
2022-12-01T04:57:50.649Z,92.42
2022-12-01T05:01:52.076Z,92.15
2022-12-01T05:06:00.284Z,92.35
2022-12-01T05:10:01.668Z,91.82
2022-12-01T05:14:04.417Z,91.76
2022-12-01T05:18:05.778Z,91.22
2022-12-01T05:22:07.185Z,91.26
2022-12-01T05:26:08.867Z,91.70
2022-12-01T05:30:12.172Z,91.78
2022-12-01T05:34:13.578Z,92.16
2022-12-01T05:38:15.416Z,92.09
2022-12-01T05:42:16.804Z,91.71
2022-12-01T05:46:19.599Z,91.16
2022-12-01T05:50:21.092Z,90.86
2022-12-01T05:54:22.489Z,90.55
2022-12-01T05:58:23.880Z,90.62
2022-12-01T06:02:26.693Z,90.54
2022-12-01T06:06:28.112Z,90.07
2022-12-01T06:10:29.496Z,89.36
2022-12-01T06:14:30.858Z,90.44
2022-12-01T06:18:34.812Z,90.28
2022-12-01T06:22:36.284Z,90.73
2022-12-01T06:26:37.647Z,90.49
2022-12-01T06:30:39.034Z,90.69
2022-12-01T06:34:41.776Z,91.02
2022-12-01T06:38:43.176Z,90.37
2022-12-01T06:42:44.550Z,90.76
2022-12-01T06:46:45.929Z,90.54
2022-12-01T06:50:48.677Z,91.01
2022-12-01T06:54:50.004Z,90.53
2022-12-01T06:58:52.007Z,91.01
2022-12-01T07:02:53.742Z,91.01
2022-12-01T07:06:56.564Z,91.15
2022-12-01T07:10:58.556Z,91.11
2022-12-01T07:14:59.915Z,90.57
2022-12-01T07:19:01.282Z,91.11
2022-12-01T07:23:04.014Z,90.91
2022-12-01T07:27:05.374Z,91.70
2022-12-01T07:31:07.635Z,91.67
2022-12-01T07:35:09.255Z,91.13
2022-12-01T07:39:12.015Z,91.10
2022-12-01T07:43:13.381Z,91.49
2022-12-01T07:47:14.743Z,90.87
2022-12-01T07:51:16.297Z,90.44
2022-12-01T07:55:19.045Z,91.34
2022-12-01T07:59:20.437Z,91.54
2022-12-01T08:03:21.875Z,91.09
2022-12-01T08:07:26.089Z,90.57
2022-12-01T08:11:32.415Z,90.95
2022-12-01T08:15:33.814Z,90.47
2022-12-01T08:19:35.212Z,90.49
2022-12-01T08:23:36.622Z,90.76
2022-12-01T08:27:39.382Z,90.81
2022-12-01T08:31:40.776Z,91.06
2022-12-01T08:35:42.175Z,90.00
2022-12-01T08:39:43.554Z,90.52
2022-12-01T08:44:01.917Z,90.19
2022-12-01T08:48:03.551Z,91.31
2022-12-01T08:52:04.925Z,90.68
2022-12-01T08:56:08.121Z,90.58
2022-12-01T09:00:11.809Z,90.46
2022-12-01T09:04:13.184Z,89.97
2022-12-01T09:08:14.617Z,89.49
2022-12-01T09:12:16.013Z,89.58
2022-12-01T09:16:18.834Z,89.19
2022-12-01T09:20:20.518Z,89.24
2022-12-01T09:24:21.911Z,89.33
2022-12-01T09:28:23.301Z,89.14
2022-12-01T09:32:26.205Z,88.96
2022-12-01T09:36:28.089Z,88.37
2022-12-01T09:40:31.465Z,87.83
2022-12-01T09:44:36.599Z,86.76
2022-12-01T09:48:41.572Z,86.72
2022-12-01T09:52:45.252Z,87.01
2022-12-01T09:56:47.470Z,85.57
2022-12-01T10:00:49.916Z,86.60
2022-12-01T10:04:54.823Z,87.40
2022-12-01T10:09:00.417Z,86.38
2022-12-01T10:13:01.791Z,85.70
2022-12-01T10:17:06.258Z,86.74
2022-12-01T10:21:14.359Z,85.57
2022-12-01T10:25:19.261Z,85.57
2022-12-01T10:29:26.725Z,85.21
2022-12-01T10:33:33.919Z,84.62
2022-12-01T10:37:37.662Z,83.97
2022-12-01T10:41:39.449Z,83.20
2022-12-01T10:45:43.320Z,82.80
2022-12-01T10:49:44.734Z,81.74
2022-12-01T10:53:47.552Z,81.79
2022-12-01T10:57:49.469Z,81.87
2022-12-01T11:01:50.942Z,81.91
2022-12-01T11:05:53.328Z,80.27
2022-12-01T11:10:13.772Z,80.70
2022-12-01T11:14:17.550Z,82.01
2022-12-01T11:18:21.903Z,82.09
2022-12-01T11:22:24.319Z,81.41
2022-12-01T11:26:28.419Z,80.56
2022-12-01T11:30:31.493Z,80.21
2022-12-01T11:34:33.325Z,78.47
2022-12-01T11:38:34.796Z,78.19
2022-12-01T11:42:38.817Z,79.69
2022-12-01T11:46:50.213Z,78.74
2022-12-01T11:51:01.683Z,80.20
2022-12-01T11:55:19.040Z,81.14
2022-12-01T11:59:23.348Z,80.92
2022-12-01T12:03:29.330Z,80.53
2022-12-01T12:07:37.310Z,81.24
2022-12-01T12:11:42.657Z,80.13
2022-12-01T12:15:51.010Z,80.63
2022-12-01T12:20:10.262Z,78.98
2022-12-01T12:24:29.623Z,79.92
2022-12-01T12:28:37.840Z,79.26
2022-12-01T12:32:49.391Z,78.96
2022-12-01T12:36:56.852Z,76.87
2022-12-01T12:41:05.478Z,78.10
2022-12-01T12:45:15.017Z,77.85
2022-12-01T12:49:24.049Z,78.70
2022-12-01T12:53:40.914Z,78.09
2022-12-01T12:57:45.665Z,79.26
2022-12-01T13:01:55.292Z,78.00
2022-12-01T13:06:00.496Z,78.86
2022-12-01T13:10:06.933Z,79.96
2022-12-01T13:14:13.120Z,79.28
2022-12-01T13:18:20.025Z,78.59
2022-12-01T13:22:24.870Z,79.61
2022-12-01T13:26:26.322Z,79.13
2022-12-01T13:30:27.842Z,79.15
2022-12-01T13:34:32.600Z,80.39
2022-12-01T13:38:35.777Z,79.86
2022-12-01T13:42:37.560Z,80.77
2022-12-01T13:46:50.621Z,81.21
2022-12-01T13:51:00.733Z,80.38
2022-12-01T13:55:23.046Z,80.69
2022-12-01T13:59:38.388Z,81.66
2022-12-01T14:03:40.952Z,81.76
2022-12-01T14:07:43.209Z,82.75
2022-12-01T14:11:55.993Z,82.13
2022-12-01T14:15:58.799Z,82.84
2022-12-01T14:20:05.451Z,82.23
2022-12-01T14:24:07.172Z,81.61
2022-12-01T14:28:14.794Z,80.37
2022-12-01T14:32:20.611Z,79.38
2022-12-01T14:36:28.849Z,79.25
2022-12-01T14:40:30.428Z,78.52
2022-12-01T14:44:38.901Z,79.74
2022-12-01T14:48:42.097Z,76.94
2022-12-01T14:52:45.987Z,77.98
2022-12-01T14:56:48.068Z,79.18
2022-12-01T15:00:56.764Z,77.90
2022-12-01T15:05:09.653Z,79.19
2022-12-01T15:13:43.786Z,81.76
2022-12-01T15:17:47.025Z,82.08
2022-12-01T15:21:48.458Z,82.85
2022-12-01T15:25:49.833Z,84.35
2022-12-01T15:29:52.055Z,84.30
2022-12-01T15:33:55.986Z,84.58
2022-12-01T15:37:57.530Z,84.37
2022-12-01T15:41:59.510Z,84.53
2022-12-01T15:46:11.144Z,84.77
2022-12-01T15:50:27.693Z,84.53
2022-12-01T15:54:29.066Z,84.19
2022-12-01T15:58:31.791Z,83.46
2022-12-01T16:02:33.460Z,82.92
2022-12-01T16:06:37.374Z,82.58
2022-12-01T16:10:38.738Z,82.36
2022-12-01T16:14:48.953Z,83.20
2022-12-01T16:18:55.021Z,83.84
2022-12-01T16:22:58.273Z,83.68
2022-12-01T16:27:01.195Z,83.79
2022-12-01T16:31:05.310Z,83.83
2022-12-01T16:35:21.425Z,83.84
2022-12-01T16:39:24.187Z,84.29
2022-12-01T16:43:26.315Z,84.74
2022-12-01T16:47:31.011Z,84.77
2022-12-01T16:51:54.412Z,85.31
2022-12-01T16:55:56.115Z,85.31
2022-12-01T16:59:57.493Z,84.71
2022-12-01T17:04:01.390Z,84.38
2022-12-01T17:08:06.233Z,84.17
2022-12-01T17:12:09.097Z,84.83
2022-12-01T17:16:15.213Z,83.86
2022-12-01T17:20:19.752Z,83.83
2022-12-01T17:24:21.140Z,83.43
2022-12-01T17:28:23.889Z,83.57
2022-12-01T17:32:25.265Z,83.78
2022-12-01T17:36:26.763Z,82.54
2022-12-01T17:40:28.161Z,82.75
2022-12-01T17:44:31.003Z,82.62
2022-12-01T17:48:34.729Z,81.82
2022-12-01T17:52:36.123Z,82.33
2022-12-01T17:56:37.709Z,82.12
2022-12-01T18:00:40.436Z,81.34
2022-12-01T18:04:41.983Z,81.56
2022-12-01T18:08:43.376Z,81.89
2022-12-01T18:12:44.741Z,81.57
2022-12-01T18:16:47.706Z,81.58
2022-12-01T18:20:49.096Z,81.02
2022-12-01T18:24:50.627Z,81.44
2022-12-01T18:28:55.608Z,81.30
2022-12-01T18:32:58.333Z,81.35
2022-12-01T18:37:01.069Z,80.90
2022-12-01T18:41:02.522Z,80.33
2022-12-01T18:45:04.007Z,80.69
2022-12-01T18:49:06.736Z,80.81
2022-12-01T18:53:08.128Z,80.95
2022-12-01T18:57:09.592Z,80.58
2022-12-01T19:01:18.254Z,80.92
2022-12-01T19:05:21.027Z,80.49
2022-12-01T19:09:24.221Z,80.92
2022-12-01T19:13:25.560Z,80.83
2022-12-01T19:17:27.065Z,80.19
2022-12-01T19:21:29.834Z,80.80
2022-12-01T19:25:31.204Z,80.58
2022-12-01T19:29:32.593Z,80.58
2022-12-01T19:33:34.116Z,80.72
2022-12-01T19:37:36.866Z,81.59
2022-12-01T19:41:38.224Z,82.11
2022-12-01T19:45:39.684Z,81.69
2022-12-01T19:49:42.233Z,82.15
2022-12-01T19:53:44.960Z,82.05
2022-12-01T19:57:49.639Z,82.59
2022-12-01T20:01:51.059Z,82.88
2022-12-01T20:05:52.544Z,82.87
2022-12-01T20:09:55.259Z,83.45
2022-12-01T20:13:56.670Z,83.09
2022-12-01T20:17:58.040Z,84.09
2022-12-01T20:21:59.410Z,83.98
2022-12-01T20:26:02.829Z,84.25
2022-12-01T20:30:04.694Z,84.47
2022-12-01T20:34:12.344Z,84.50
2022-12-01T20:38:13.720Z,84.54
2022-12-01T20:42:16.435Z,84.80
2022-12-01T20:46:18.051Z,84.96
2022-12-01T20:50:20.861Z,85.17
2022-12-01T20:54:30.297Z,84.40
2022-12-01T20:58:37.211Z,84.92
2022-12-01T21:02:39.245Z,84.90
2022-12-01T21:06:40.683Z,84.81
2022-12-01T21:10:43.295Z,85.68
2022-12-01T21:14:47.958Z,85.61
2022-12-01T21:18:50.913Z,86.08
2022-12-01T21:22:52.477Z,85.88
2022-12-01T21:26:56.544Z,85.65
2022-12-01T21:31:01.648Z,86.38
2022-12-01T21:35:08.077Z,86.26
2022-12-01T21:39:12.650Z,86.34
2022-12-01T21:43:17.183Z,86.31
2022-12-01T21:47:20.954Z,85.85
2022-12-01T21:51:23.442Z,86.39
2022-12-01T21:55:32.388Z,85.05
2022-12-01T21:59:33.724Z,85.25
2022-12-01T22:03:39.384Z,85.52
2022-12-01T22:07:40.887Z,85.79
2022-12-01T22:11:42.758Z,85.94
2022-12-01T22:15:44.176Z,86.19
2022-12-01T22:19:52.156Z,85.69
2022-12-01T22:23:59.107Z,85.05
2022-12-01T22:28:01.827Z,85.63
2022-12-01T22:32:25.567Z,86.04
2022-12-01T22:36:29.989Z,85.56
2022-12-01T22:40:36.875Z,85.97
2022-12-01T22:44:38.231Z,85.93
2022-12-01T22:48:40.887Z,85.64
2022-12-01T22:52:43.580Z,85.69
2022-12-01T22:56:46.249Z,86.28
2022-12-01T23:00:47.643Z,85.71
2022-12-01T23:04:50.248Z,84.88
2022-12-01T23:08:53.191Z,85.95
2022-12-01T23:12:57.032Z,85.16
2022-12-01T23:17:04.245Z,85.31
2022-12-01T23:21:05.664Z,85.97
2022-12-01T23:25:11.804Z,86.07
2022-12-01T23:29:13.167Z,85.98
2022-12-01T23:33:16.203Z,85.47
2022-12-01T23:37:26.303Z,85.92
2022-12-01T23:41:32.442Z,85.78
2022-12-01T23:45:33.799Z,86.88
2022-12-01T23:49:35.291Z,86.74
2022-12-01T23:53:38.983Z,86.19
2022-12-01T23:57:41.737Z,85.52
